Time;durP1;ratioP1;P1;durP2;ratioP2;P2;SDS_P1;SDS_P2;PMS_P1;PMS_P2;Temp;Humidity;BMP_temperature;BMP_pressure;BME280_temperature;BME280_humidity;BME280_pressure;Samples;Min_cycle;Max_cycle;Signal;HPM_P1;HPM_P2
2023/08/06 00:00:07;;;;;;;4.80;4.30;;;;;;;23.23;100.00;100380.21;108240;1263;60580;-51
2023/08/06 00:02:35;;;;;;;5.10;4.60;;;;;;;23.22;100.00;100377.22;108354;1262;71252;-50
2023/08/06 00:05:03;;;;;;;5.50;4.80;;;;;;;23.22;100.00;100373.05;108247;1264;65545;-52
2023/08/06 00:07:31;;;;;;;6.30;4.90;;;;;;;23.22;100.00;100367.70;108266;1266;71723;-50
2023/08/06 00:09:58;;;;;;;4.70;4.30;;;;;;;23.23;100.00;100363.23;108149;1263;60431;-48
2023/08/06 00:12:25;;;;;;;5.10;4.80;;;;;;;23.23;100.00;100363.02;108410;1264;59956;-48
2023/08/06 00:14:53;;;;;;;4.60;4.40;;;;;;;23.23;100.00;100365.36;108249;1263;71324;-48
2023/08/06 00:17:20;;;;;;;5.70;5.40;;;;;;;23.23;100.00;100361.68;108231;1264;65992;-52
2023/08/06 00:19:47;;;;;;;5.40;5.10;;;;;;;23.23;100.00;100358.25;105034;1266;72072;-50
2023/08/06 00:22:15;;;;;;;6.20;5.10;;;;;;;23.22;100.00;100358.40;103946;1264;61842;-48
2023/08/06 00:24:42;;;;;;;6.20;4.10;;;;;;;23.20;100.00;100351.45;103843;1264;59627;-52
2023/08/06 00:27:09;;;;;;;5.20;4.80;;;;;;;23.19;100.00;100350.95;103880;1264;71798;-52
2023/08/06 00:29:37;;;;;;;5.80;4.30;;;;;;;23.18;100.00;100351.96;103797;1264;68292;-48
2023/08/06 00:32:04;;;;;;;5.00;4.70;;;;;;;23.16;100.00;100346.86;103823;1266;70535;-49
2023/08/06 00:34:31;;;;;;;5.30;5.00;;;;;;;23.14;100.00;100340.58;103802;1270;60457;-46
2023/08/06 00:36:59;;;;;;;4.80;4.00;;;;;;;23.14;100.00;100342.10;103889;1264;61020;-48
2023/08/06 00:39:26;;;;;;;4.60;4.30;;;;;;;23.12;100.00;100339.13;103881;1263;75385;-50
2023/08/06 00:41:54;;;;;;;4.70;4.40;;;;;;;23.12;100.00;100337.02;104301;1260;66868;-46
2023/08/06 00:44:21;;;;;;;5.30;4.90;;;;;;;23.10;100.00;100336.41;104321;1257;71417;-47
2023/08/06 00:46:49;;;;;;;5.00;4.60;;;;;;;23.09;100.00;100339.61;104369;1258;60623;-50
2023/08/06 00:49:17;;;;;;;5.50;5.10;;;;;;;23.07;100.00;100336.91;105045;1256;60573;-49
2023/08/06 00:51:44;;;;;;;5.30;4.90;;;;;;;23.06;100.00;100332.06;104421;1259;73017;-49
2023/08/06 00:54:11;;;;;;;5.60;4.10;;;;;;;23.05;100.00;100331.96;104420;1256;67190;-52
2023/08/06 00:56:39;;;;;;;5.70;5.00;;;;;;;23.04;100.00;100333.66;104259;1259;71539;-48
2023/08/06 00:59:06;;;;;;;4.10;4.00;;;;;;;23.03;100.00;100335.79;104398;1256;62173;-47
2023/08/06 01:01:33;;;;;;;5.80;5.30;;;;;;;23.00;100.00;100331.96;104380;1262;59715;-47
2023/08/06 01:04:01;;;;;;;5.50;5.20;;;;;;;22.99;100.00;100329.01;104489;1258;73043;-47
2023/08/06 01:06:56;;;;;;;5.10;4.70;;;;;;;22.98;100.00;100327.95;104860;1256;67873;-50
2023/08/06 01:09:42;;;;;;;4.70;4.40;;;;;;;22.98;100.00;100335.10;104650;1257;72562;-48
2023/08/06 01:12:35;;;;;;;4.80;4.50;;;;;;;22.97;100.00;100332.45;104857;1256;62235;-49
2023/08/06 01:15:17;;;;;;;5.00;4.70;;;;;;;22.96;100.00;100335.30;104813;1261;59238;-46
2023/08/06 01:17:45;;;;;;;5.70;5.20;;;;;;;22.95;100.00;100329.23;104846;1257;71801;-46
2023/08/06 01:20:12;;;;;;;4.70;4.40;;;;;;;22.93;100.00;100322.38;104701;1257;69996;-48
2023/08/06 01:22:40;;;;;;;4.80;4.50;;;;;;;22.93;100.00;100318.70;104847;1258;73076;-47
2023/08/06 01:25:08;;;;;;;5.50;5.20;;;;;;;22.92;100.00;100313.92;104787;1259;61593;-51
2023/08/06 01:27:44;;;;;;;5.10;4.90;;;;;;;22.91;100.00;100315.45;104740;1260;59615;-49
2023/08/06 01:30:13;;;;;;;5.10;4.40;;;;;;;22.90;100.00;100314.29;104863;1256;73510;-48
2023/08/06 01:32:43;;;;;;;4.70;4.30;;;;;;;22.88;100.00;100312.96;105013;1257;66827;-50
2023/08/06 01:35:10;;;;;;;4.90;4.50;;;;;;;22.87;100.00;100309.39;104437;1257;72477;-50
2023/08/06 01:37:38;;;;;;;5.60;5.00;;;;;;;22.86;100.00;100309.15;104345;1263;61661;-48
2023/08/06 01:40:11;;;;;;;5.30;4.80;;;;;;;22.85;100.00;100305.21;104306;1258;59992;-49
2023/08/06 01:42:39;;;;;;;5.10;4.60;;;;;;;22.83;100.00;100309.02;104785;1258;71854;-50
2023/08/06 01:45:08;;;;;;;4.80;4.40;;;;;;;22.82;100.00;100305.70;104776;1257;66068;-48
2023/08/06 01:47:35;;;;;;;4.90;4.60;;;;;;;22.80;100.00;100306.93;104447;1260;72692;-49
2023/08/06 01:50:03;;;;;;;4.90;4.50;;;;;;;22.79;100.00;100306.11;104560;1260;60429;-50
2023/08/06 01:52:31;;;;;;;4.30;4.10;;;;;;;22.77;100.00;100305.06;104397;1257;59826;-51
2023/08/06 01:54:58;;;;;;;4.80;4.40;;;;;;;22.76;100.00;100303.84;104467;1260;72998;-50
2023/08/06 01:57:25;;;;;;;5.00;4.70;;;;;;;22.74;100.00;100301.41;104500;1257;65620;-49
2023/08/06 01:59:53;;;;;;;5.20;4.80;;;;;;;22.74;100.00;100300.54;103995;1257;72774;-48
2023/08/06 02:02:20;;;;;;;4.30;4.00;;;;;;;22.73;100.00;100298.56;104674;1263;60367;-50
2023/08/06 02:04:48;;;;;;;5.80;4.90;;;;;;;22.73;100.00;100295.81;105027;1256;60997;-48
2023/08/06 02:07:15;;;;;;;5.30;5.00;;;;;;;22.73;100.00;100298.39;104611;1263;72989;-50
2023/08/06 02:09:42;;;;;;;5.30;4.40;;;;;;;22.73;100.00;100301.19;104140;1260;67507;-50
2023/08/06 02:12:10;;;;;;;6.40;4.10;;;;;;;22.71;100.00;100299.66;104587;1260;72049;-48
2023/08/06 02:14:37;;;;;;;3.70;3.40;;;;;;;22.70;100.00;100304.57;104581;1257;61654;-50
2023/08/06 02:17:06;;;;;;;4.60;4.30;;;;;;;22.68;100.00;100308.02;104746;1255;60344;-50
2023/08/06 02:19:33;;;;;;;5.20;4.50;;;;;;;22.65;100.00;100309.50;104786;1257;73930;-48
2023/08/06 02:22:02;;;;;;;6.20;5.10;;;;;;;22.63;100.00;100309.12;104682;1258;67863;-49
2023/08/06 02:24:29;;;;;;;4.30;3.90;;;;;;;22.62;100.00;100312.36;104850;1259;71323;-47
2023/08/06 02:26:56;;;;;;;6.20;4.10;;;;;;;22.61;100.00;100313.00;104968;1258;60369;-48
2023/08/06 02:29:24;;;;;;;5.80;4.90;;;;;;;22.59;100.00;100312.61;104683;1257;62260;-51
2023/08/06 02:31:51;;;;;;;5.10;4.80;;;;;;;22.58;100.00;100311.64;104766;1257;71840;-50
2023/08/06 02:34:19;;;;;;;5.60;5.10;;;;;;;22.55;100.00;100307.89;105090;1257;67869;-48
2023/08/06 02:36:46;;;;;;;4.80;4.30;;;;;;;22.53;100.00;100311.54;104778;1260;70887;-48
2023/08/06 02:39:14;;;;;;;5.10;4.70;;;;;;;22.52;100.00;100309.08;104566;1263;60458;-48
2023/08/06 02:41:41;;;;;;;4.50;4.30;;;;;;;22.51;100.00;100309.15;104768;1257;60063;-50
2023/08/06 02:44:08;;;;;;;5.80;5.30;;;;;;;22.50;100.00;100311.83;104833;1257;72853;-49
2023/08/06 02:46:36;;;;;;;4.80;4.60;;;;;;;22.48;100.00;100311.27;104644;1257;66644;-51
2023/08/06 02:49:03;;;;;;;4.70;4.50;;;;;;;22.46;100.00;100316.88;104656;1257;76304;-47
2023/08/06 02:51:31;;;;;;;4.50;4.20;;;;;;;22.45;100.00;100315.16;104678;1257;61659;-50
2023/08/06 02:53:58;;;;;;;4.80;4.40;;;;;;;22.45;100.00;100317.21;104354;1262;59708;-49
2023/08/06 02:56:26;;;;;;;5.00;4.30;;;;;;;22.45;100.00;100317.39;104430;1257;74113;-50
2023/08/06 02:59:03;;;;;;;4.30;3.90;;;;;;;22.44;100.00;100321.48;104547;1257;67503;-51
2023/08/06 03:01:38;;;;;;;5.50;5.10;;;;;;;22.44;100.00;100325.35;104383;1257;71201;-49
2023/08/06 03:04:12;;;;;;;4.20;3.90;;;;;;;22.44;100.00;100330.14;104325;1262;61616;-48
2023/08/06 03:06:41;;;;;;;4.30;4.10;;;;;;;22.44;100.00;100324.98;104276;1256;62157;-51
2023/08/06 03:09:09;;;;;;;5.00;4.60;;;;;;;22.44;100.00;100323.85;108658;1257;73516;-49
2023/08/06 03:11:36;;;;;;;4.60;4.30;;;;;;;22.45;100.00;100321.77;108685;1256;67534;-49
2023/08/06 03:14:07;;;;;;;4.30;4.10;;;;;;;22.45;100.00;100328.36;108583;1256;72739;-49
2023/08/06 03:16:34;;;;;;;3.60;3.20;;;;;;;22.46;100.00;100326.30;108729;1255;62194;-50
2023/08/06 03:19:02;;;;;;;4.80;4.60;;;;;;;22.47;100.00;100327.42;108687;1256;58700;-51
2023/08/06 03:21:29;;;;;;;4.10;3.80;;;;;;;22.49;100.00;100329.66;108650;1256;73053;-50
2023/08/06 03:23:57;;;;;;;4.10;3.80;;;;;;;22.51;100.00;100330.23;108700;1255;66795;-51
2023/08/06 03:26:25;;;;;;;3.90;3.70;;;;;;;22.52;100.00;100331.35;105707;1262;72623;-50
2023/08/06 03:28:53;;;;;;;4.30;4.10;;;;;;;22.52;100.00;100326.61;104442;1257;62147;-48
2023/08/06 03:31:20;;;;;;;5.10;4.20;;;;;;;22.54;100.00;100331.58;104396;1257;60647;-49
2023/08/06 03:33:48;;;;;;;3.90;3.60;;;;;;;22.55;100.00;100332.38;104529;1260;71814;-50
2023/08/06 03:36:18;;;;;;;4.10;3.80;;;;;;;22.56;100.00;100333.55;104717;1257;66277;-49
2023/08/06 03:38:46;;;;;;;4.70;3.80;;;;;;;22.58;100.00;100333.77;104817;1262;73122;-49
2023/08/06 03:41:13;;;;;;;5.40;3.90;;;;;;;22.59;100.00;100335.48;104866;1257;61678;-47
2023/08/06 03:43:41;;;;;;;5.20;4.70;;;;;;;22.62;100.00;100338.90;105354;1257;59405;-49
2023/08/06 03:46:11;;;;;;;6.20;4.40;;;;;;;22.64;100.00;100340.52;104903;1257;73480;-50
2023/08/06 03:48:39;;;;;;;4.50;4.30;;;;;;;22.66;100.00;100345.84;104567;1263;65590;-51
2023/08/06 03:51:06;;;;;;;4.90;4.50;;;;;;;22.70;100.00;100343.31;104915;1258;71614;-50
2023/08/06 03:53:34;;;;;;;3.90;3.70;;;;;;;22.74;100.00;100343.90;105946;1257;61653;-48
2023/08/06 03:56:02;;;;;;;4.30;4.10;;;;;;;22.75;100.00;100346.73;104442;1257;61721;-47
2023/08/06 03:58:30;;;;;;;4.40;4.20;;;;;;;22.76;100.00;100354.48;104553;1263;73993;-50
2023/08/06 04:00:59;;;;;;;3.80;3.60;;;;;;;22.78;100.00;100356.69;104682;1258;66217;-52
2023/08/06 04:03:28;;;;;;;4.90;4.60;;;;;;;22.82;100.00;100359.85;105250;1260;72742;-49
2023/08/06 04:05:57;;;;;;;5.30;5.00;;;;;;;22.86;100.00;100363.67;105056;1258;60751;-48
2023/08/06 04:08:24;;;;;;;4.20;4.00;;;;;;;22.90;100.00;100361.62;104680;1257;61654;-47
2023/08/06 04:10:52;;;;;;;4.00;3.70;;;;;;;22.94;100.00;100366.94;104492;1262;73900;-50
2023/08/06 04:13:20;;;;;;;4.90;4.50;;;;;;;23.00;100.00;100371.15;104800;1258;66420;-48
2023/08/06 04:15:47;;;;;;;4.40;4.20;;;;;;;23.06;100.00;100373.59;104666;1257;72562;-50
2023/08/06 04:18:15;;;;;;;3.30;3.10;;;;;;;23.11;100.00;100380.06;104585;1257;61714;-47
2023/08/06 04:20:46;;;;;;;4.40;4.20;;;;;;;23.18;100.00;100377.98;104676;1257;60353;-48
2023/08/06 04:23:14;;;;;;;4.40;3.80;;;;;;;23.25;100.00;100384.25;104723;1257;72975;-50
2023/08/06 04:25:41;;;;;;;4.60;4.00;;;;;;;23.32;100.00;100386.95;104565;1261;67771;-48
2023/08/06 04:28:09;;;;;;;4.80;4.50;;;;;;;23.39;100.00;100398.37;104929;1260;71391;-51
2023/08/06 04:30:37;;;;;;;4.30;4.10;;;;;;;23.47;100.00;100399.86;104567;1257;61653;-50
2023/08/06 04:33:04;;;;;;;4.40;4.00;;;;;;;23.61;100.00;100408.85;105019;1257;60849;-50
2023/08/06 04:35:32;;;;;;;4.70;4.00;;;;;;;23.74;100.00;100414.35;104929;1257;73900;-51
2023/08/06 04:38:00;;;;;;;4.30;4.10;;;;;;;23.84;100.00;100420.27;104869;1258;67865;-50
2023/08/06 04:40:27;;;;;;;4.60;4.40;;;;;;;23.91;100.00;100426.17;104637;1257;71484;-50
2023/08/06 04:42:55;;;;;;;4.40;4.20;;;;;;;23.99;100.00;100432.77;104485;1262;60463;-52
2023/08/06 04:45:24;;;;;;;4.40;4.20;;;;;;;24.04;100.00;100436.52;104760;1258;60639;-50
2023/08/06 04:47:51;;;;;;;3.20;3.00;;;;;;;24.07;100.00;100449.93;105041;1258;73798;-49
2023/08/06 04:50:20;;;;;;;3.90;3.50;;;;;;;24.10;100.00;100450.15;104653;1263;66474;-49
2023/08/06 04:52:47;;;;;;;4.20;4.00;;;;;;;24.13;100.00;100452.66;104622;1261;73587;-51
2023/08/06 04:55:14;;;;;;;4.70;4.30;;;;;;;24.19;100.00;100458.42;104599;1262;61662;-51
2023/08/06 04:57:42;;;;;;;3.90;3.70;;;;;;;24.24;100.00;100463.30;104946;1257;60539;-49
2023/08/06 05:00:09;;;;;;;5.00;4.70;;;;;;;24.29;100.00;100469.77;104701;1262;73043;-50
2023/08/06 05:02:38;;;;;;;6.90;3.90;;;;;;;24.36;100.00;100479.39;105501;1260;68036;-52
2023/08/06 05:05:06;;;;;;;3.80;3.50;;;;;;;24.42;100.00;100487.39;105008;1262;72583;-50
2023/08/06 05:07:33;;;;;;;4.40;4.20;;;;;;;24.49;100.00;100499.25;105268;1263;60386;-48
2023/08/06 05:10:01;;;;;;;4.50;4.20;;;;;;;24.55;100.00;100501.96;104745;1259;60542;-50
2023/08/06 05:12:28;;;;;;;4.40;4.10;;;;;;;24.62;100.00;100511.39;104791;1257;73169;-49
2023/08/06 05:14:55;;;;;;;4.40;4.00;;;;;;;24.66;100.00;100517.76;104548;1257;65212;-50
2023/08/06 05:17:24;;;;;;;4.90;4.50;;;;;;;24.71;100.00;100518.96;104827;1257;70569;-52
2023/08/06 05:19:51;;;;;;;4.60;4.10;;;;;;;24.75;100.00;100530.11;104742;1259;61643;-49
2023/08/06 05:22:18;;;;;;;3.50;3.30;;;;;;;24.81;100.00;100536.73;104747;1257;60546;-51
2023/08/06 05:24:46;;;;;;;5.20;2.90;;;;;;;24.87;100.00;100537.78;104853;1260;73855;-52
2023/08/06 05:27:13;;;;;;;3.70;3.30;;;;;;;24.93;100.00;100543.14;104751;1261;65648;-51
2023/08/06 05:29:40;;;;;;;3.50;3.30;;;;;;;25.01;100.00;100557.61;104806;1262;72084;-52
2023/08/06 05:32:09;;;;;;;4.50;2.80;;;;;;;25.10;100.00;100559.25;104834;1257;61740;-52
2023/08/06 05:34:36;;;;;;;3.50;3.30;;;;;;;25.20;100.00;100574.10;104800;1256;60454;-52
2023/08/06 05:37:04;;;;;;;3.80;3.50;;;;;;;25.31;100.00;100580.72;104787;1257;74268;-51
2023/08/06 05:39:31;;;;;;;3.70;3.40;;;;;;;25.41;100.00;100595.00;104690;1261;68396;-50
2023/08/06 05:41:59;;;;;;;4.50;4.10;;;;;;;25.50;100.00;100608.85;104692;1262;71089;-50
2023/08/06 05:44:26;;;;;;;4.70;4.30;;;;;;;25.56;100.00;100618.90;104769;1258;60572;-51
2023/08/06 05:46:54;;;;;;;3.30;3.20;;;;;;;25.61;100.00;100625.24;104697;1261;60516;-50
2023/08/06 05:49:21;;;;;;;4.30;4.00;;;;;;;25.65;100.00;100636.06;104813;1261;72879;-51
2023/08/06 05:51:48;;;;;;;4.40;4.10;;;;;;;25.69;100.00;100639.19;104743;1257;66840;-52
2023/08/06 05:54:16;;;;;;;4.00;3.70;;;;;;;25.74;100.00;100648.96;104768;1257;70541;-50
2023/08/06 05:56:43;;;;;;;4.20;3.40;;;;;;;25.80;100.00;100659.58;104958;1254;62913;-52
2023/08/06 05:59:10;;;;;;;3.50;3.10;;;;;;;25.86;100.00;100667.44;104663;1255;61117;-51
2023/08/06 06:01:37;;;;;;;2.80;2.70;;;;;;;25.93;100.00;100677.11;104889;1260;73814;-50
2023/08/06 06:04:05;;;;;;;5.90;4.10;;;;;;;26.01;100.00;100689.59;104860;1260;65978;-50
2023/08/06 06:06:32;;;;;;;3.70;3.40;;;;;;;26.08;100.00;100698.81;104833;1259;71205;-49
2023/08/06 06:09:00;;;;;;;5.20;4.70;;;;;;;26.14;100.00;100708.28;104803;1260;60419;-51
2023/08/06 06:11:27;;;;;;;3.70;3.50;;;;;;;26.20;100.00;100719.41;104846;1257;60498;-52
2023/08/06 06:13:55;;;;;;;3.70;3.50;;;;;;;26.26;100.00;100727.70;104730;1257;74747;-51
2023/08/06 06:16:22;;;;;;;4.20;3.60;;;;;;;26.31;100.00;100739.92;104996;1259;66697;-51
2023/08/06 06:18:49;;;;;;;3.90;3.10;;;;;;;26.36;100.00;100748.11;108810;1256;73698;-52
2023/08/06 06:21:17;;;;;;;2.80;2.70;;;;;;;26.42;100.00;100758.60;109027;1260;61066;-52
2023/08/06 06:23:44;;;;;;;3.90;3.60;;;;;;;26.48;100.00;100769.40;108905;1254;60104;-52
2023/08/06 06:26:12;;;;;;;4.70;3.30;;;;;;;26.54;100.00;100780.02;108906;1254;72538;-51
2023/08/06 06:28:40;;;;;;;3.40;3.10;;;;;;;26.59;100.00;100784.80;104779;1254;65010;-52
2023/08/06 06:31:07;;;;;;;4.10;3.80;;;;;;;26.66;100.00;100797.55;104691;1256;72465;-51
2023/08/06 06:33:34;;;;;;;3.00;2.90;;;;;;;26.74;100.00;100808.19;105138;1254;60446;-50
2023/08/06 06:36:03;;;;;;;4.60;2.90;;;;;;;26.80;100.00;100817.14;104964;1254;60451;-51
2023/08/06 06:38:30;;;;;;;3.90;3.40;;;;;;;26.87;100.00;100822.55;104754;1254;74861;-50
2023/08/06 06:40:58;;;;;;;3.30;3.20;;;;;;;26.92;100.00;100836.19;104641;1254;67377;-49
2023/08/06 06:43:25;;;;;;;4.20;3.90;;;;;;;26.97;100.00;100843.96;104809;1257;72633;-52
2023/08/06 06:45:54;;;;;;;3.00;2.80;;;;;;;27.04;100.00;100855.48;104992;1259;60460;-50
2023/08/06 06:48:21;;;;;;;5.30;2.60;;;;;;;27.10;100.00;100867.90;104830;1259;60545;-50
2023/08/06 06:50:49;;;;;;;3.30;2.70;;;;;;;27.17;100.00;100876.46;104811;1254;73143;-52
2023/08/06 06:53:16;;;;;;;2.70;2.60;;;;;;;27.23;100.00;100892.44;104800;1254;66743;-51
2023/08/06 06:55:43;;;;;;;2.90;2.60;;;;;;;27.29;100.00;100902.84;104947;1260;71781;-52
2023/08/06 06:58:11;;;;;;;5.10;3.10;;;;;;;27.35;100.00;100912.19;104904;1258;60557;-49
2023/08/06 07:00:38;;;;;;;3.40;2.60;;;;;;;27.42;100.00;100923.70;104605;1254;62208;-50
2023/08/06 07:03:05;;;;;;;2.70;2.50;;;;;;;27.47;100.00;100925.89;104740;1257;72538;-51
2023/08/06 07:05:33;;;;;;;3.80;2.50;;;;;;;27.54;100.00;100933.97;104782;1254;66044;-52
2023/08/06 07:08:00;;;;;;;2.30;2.20;;;;;;;27.59;100.00;100944.65;104726;1260;73156;-52
2023/08/06 07:10:28;;;;;;;4.20;3.40;;;;;;;27.64;100.00;100949.87;104428;1259;60565;-52
2023/08/06 07:12:55;;;;;;;2.20;2.10;;;;;;;27.70;100.00;100964.36;104906;1254;61813;-52
2023/08/06 07:15:22;;;;;;;2.00;1.90;;;;;;;27.77;100.00;100977.85;104911;1255;72564;-51
2023/08/06 07:17:50;;;;;;;2.20;2.10;;;;;;;27.83;100.00;100983.50;105001;1254;65493;-50
2023/08/06 07:20:17;;;;;;;3.50;2.80;;;;;;;27.89;100.00;100993.25;104846;1260;72734;-51
2023/08/06 07:22:44;;;;;;;2.50;2.30;;;;;;;27.96;100.00;101005.14;104821;1260;60498;-49
2023/08/06 07:25:12;;;;;;;4.40;3.30;;;;;;;28.02;100.00;101016.77;104805;1257;59941;-51
2023/08/06 07:27:39;;;;;;;3.20;1.70;;;;;;;28.09;100.00;101023.67;104632;1260;72929;-52
2023/08/06 07:30:07;;;;;;;2.20;2.10;;;;;;;28.16;100.00;101030.72;104747;1256;66162;-53
2023/08/06 07:32:34;;;;;;;2.00;1.80;;;;;;;28.22;100.00;101037.65;104716;1260;72676;-51
2023/08/06 07:35:02;;;;;;;3.60;2.00;;;;;;;28.29;100.00;101046.17;104760;1260;60550;-52
2023/08/06 07:37:30;;;;;;;2.10;2.00;;;;;;;28.37;100.00;101058.30;105837;1258;60543;-52
2023/08/06 07:39:57;;;;;;;3.40;2.00;;;;;;;28.44;100.00;101066.61;104954;1260;73869;-52
2023/08/06 07:42:25;;;;;;;2.90;1.60;;;;;;;28.50;100.00;101082.36;104613;1258;67056;-51
2023/08/06 07:44:55;;;;;;;2.20;1.90;;;;;;;28.57;100.00;101094.80;104901;1254;74317;-53
2023/08/06 07:47:23;;;;;;;4.30;1.80;;;;;;;28.65;100.00;101112.84;104725;1257;61335;-53
2023/08/06 07:49:50;;;;;;;2.70;1.60;;;;;;;28.72;100.00;101115.92;104690;1255;60466;-52
2023/08/06 07:52:17;;;;;;;2.70;1.80;;;;;;;28.80;100.00;101128.33;104663;1257;72807;-54
2023/08/06 07:54:45;;;;;;;3.20;1.70;;;;;;;28.86;100.00;101135.39;104667;1255;66733;-53
2023/08/06 07:57:13;;;;;;;5.20;1.50;;;;;;;28.91;100.00;101142.43;104601;1261;72663;-53
2023/08/06 07:59:41;;;;;;;2.60;1.40;;;;;;;28.96;100.00;101149.27;104525;1255;60326;-51
2023/08/06 08:02:08;;;;;;;2.20;1.40;;;;;;;29.03;100.00;101155.05;104939;1258;60624;-51
2023/08/06 08:04:35;;;;;;;4.60;1.70;;;;;;;29.10;100.00;101164.68;104680;1256;73828;-52
2023/08/06 08:07:04;;;;;;;1.70;1.60;;;;;;;29.17;100.00;101175.01;104517;1259;68952;-49
2023/08/06 08:09:31;;;;;;;2.60;1.50;;;;;;;29.25;100.00;101187.08;105446;1260;72664;-51
2023/08/06 08:12:00;;;;;;;4.00;1.70;;;;;;;29.34;100.00;101195.45;104875;1254;60515;-52
2023/08/06 08:14:28;;;;;;;1.90;1.20;;;;;;;29.43;100.00;101207.33;104982;1255;60620;-52
2023/08/06 08:16:56;;;;;;;2.30;1.30;;;;;;;29.50;100.00;101216.92;104625;1255;72649;-52
2023/08/06 08:19:23;;;;;;;1.20;1.10;;;;;;;29.56;100.00;101219.92;104757;1260;65765;-51
2023/08/06 08:21:51;;;;;;;3.20;1.30;;;;;;;29.62;100.00;101226.16;104543;1260;74647;-52
2023/08/06 08:24:19;;;;;;;1.60;1.00;;;;;;;29.68;100.00;101234.52;104570;1257;60531;-51
2023/08/06 08:26:47;;;;;;;2.70;1.50;;;;;;;29.76;100.00;101242.41;104697;1254;60703;-52
2023/08/06 08:29:14;;;;;;;1.40;1.10;;;;;;;29.83;100.00;101251.14;104850;1260;72686;-52
2023/08/06 08:31:43;;;;;;;3.10;1.60;;;;;;;29.89;100.00;101258.08;104528;1254;67133;-53
2023/08/06 08:34:10;;;;;;;2.40;1.00;;;;;;;29.95;100.00;101265.02;104946;1257;72655;-52
2023/08/06 08:36:38;;;;;;;3.00;1.20;;;;;;;30.02;100.00;101269.04;104670;1263;61310;-52
2023/08/06 08:39:05;;;;;;;6.60;1.40;;;;;;;30.09;100.00;101274.67;104557;1256;60345;-53
2023/08/06 08:41:33;;;;;;;6.50;1.50;;;;;;;30.14;100.00;101280.56;104811;1260;72642;-53
2023/08/06 08:44:00;;;;;;;4.40;1.90;;;;;;;30.20;100.00;101280.30;104463;1262;67363;-53
2023/08/06 08:46:29;;;;;;;2.20;1.20;;;;;;;30.25;100.00;101284.08;104746;1260;72195;-53
2023/08/06 08:49:01;;;;;;;3.10;1.30;;;;;;;30.30;100.00;101286.46;104774;1260;60511;-53
2023/08/06 08:51:28;;;;;;;1.80;1.20;;;;;;;30.36;100.00;101290.60;104679;1257;60943;-53
2023/08/06 08:53:58;;;;;;;2.20;1.50;;;;;;;30.42;100.00;101285.56;104549;1263;74339;-52
2023/08/06 08:56:26;;;;;;;2.10;1.20;;;;;;;30.47;100.00;101290.73;108790;1257;66876;-53
2023/08/06 08:58:55;;;;;;;2.30;1.30;;;;;;;30.52;100.00;101286.15;108917;1257;73141;-52
2023/08/06 09:01:22;;;;;;;3.30;1.40;;;;;;;30.57;100.00;101289.25;107740;1256;60466;-52
2023/08/06 09:03:50;;;;;;;1.30;1.10;;;;;;;30.63;100.00;101291.53;104719;1254;60638;-53
2023/08/06 09:06:17;;;;;;;1.90;1.20;;;;;;;30.69;100.00;101289.80;104408;1260;73888;-53
2023/08/06 09:08:53;;;;;;;2.60;1.20;;;;;;;30.74;100.00;101292.00;104517;1263;68691;-54
2023/08/06 09:11:21;;;;;;;1.90;1.20;;;;;;;30.78;100.00;101300.89;104398;1257;73099;-53
2023/08/06 09:13:48;;;;;;;5.90;1.70;;;;;;;30.79;100.00;101287.71;104470;1258;60757;-53
2023/08/06 09:16:16;;;;;;;2.80;1.20;;;;;;;30.83;100.00;101282.48;104831;1260;60453;-53
2023/08/06 09:18:44;;;;;;;1.50;1.20;;;;;;;30.88;100.00;101280.55;104765;1260;72561;-52
2023/08/06 09:21:17;;;;;;;1.80;1.50;;;;;;;30.93;100.00;101276.30;104845;1260;66830;-54
2023/08/06 09:23:45;;;;;;;2.10;1.30;;;;;;;31.00;100.00;101283.29;105013;1260;72663;-53
2023/08/06 09:26:13;;;;;;;3.40;1.70;;;;;;;31.04;100.00;101269.45;104766;1260;62650;-51
2023/08/06 09:28:43;;;;;;;4.00;1.10;;;;;;;31.08;100.00;101264.98;104816;1260;60440;-53
2023/08/06 09:31:11;;;;;;;1.70;1.40;;;;;;;31.13;100.00;101254.55;104759;1255;75039;-52
2023/08/06 09:33:38;;;;;;;1.50;1.20;;;;;;;31.19;100.00;101245.86;105963;1259;67228;-52
2023/08/06 09:36:10;;;;;;;1.50;1.40;;;;;;;31.24;100.00;101243.09;106540;1255;72791;-52
2023/08/06 09:38:40;;;;;;;2.50;1.10;;;;;;;31.29;100.00;101238.31;107502;1259;59933;-54
2023/08/06 09:41:07;;;;;;;2.70;1.40;;;;;;;31.32;100.00;101228.48;106409;1262;60324;-52
2023/08/06 09:43:42;;;;;;;2.70;1.20;;;;;;;31.33;100.00;101215.17;104810;1263;74383;-54
2023/08/06 09:46:14;;;;;;;2.60;1.10;;;;;;;31.38;100.00;101210.08;104842;1260;67253;-52
2023/08/06 09:48:48;;;;;;;5.10;1.20;;;;;;;31.42;100.00;101205.61;105482;1258;71824;-52
2023/08/06 09:51:15;;;;;;;2.50;1.30;;;;;;;31.47;100.00;101198.98;105112;1270;60557;-54
2023/08/06 09:53:43;;;;;;;4.70;1.60;;;;;;;31.50;100.00;101182.23;104650;1257;60511;-53
2023/08/06 09:56:11;;;;;;;3.10;1.40;;;;;;;31.53;100.00;101171.56;104751;1262;74381;-52
2023/08/06 09:58:38;;;;;;;4.30;1.30;;;;;;;31.56;100.00;101166.37;104682;1255;66930;-53
2023/08/06 10:01:05;;;;;;;2.60;1.20;;;;;;;31.61;100.00;101159.11;104472;1264;71462;-54
2023/08/06 10:03:33;;;;;;;3.90;1.20;;;;;;;31.66;100.00;101153.98;104558;1257;62289;-53
2023/08/06 10:06:02;;;;;;;5.30;1.20;;;;;;;31.70;100.00;101149.23;104923;1260;61315;-52
2023/08/06 10:08:30;;;;;;;2.90;1.00;;;;;;;31.72;100.00;101137.52;104802;1254;73233;-53
2023/08/06 10:10:57;;;;;;;4.40;1.10;;;;;;;31.75;100.00;101121.55;104814;1260;67749;-53
2023/08/06 10:13:25;;;;;;;1.50;1.00;;;;;;;31.79;100.00;101115.91;104971;1262;72275;-52
2023/08/06 10:15:52;;;;;;;3.60;1.20;;;;;;;31.83;100.00;101109.77;104631;1263;60576;-54
2023/08/06 10:18:22;;;;;;;4.20;1.10;;;;;;;31.90;100.00;101101.32;104421;1254;60609;-52
2023/08/06 10:20:49;;;;;;;1.50;1.00;;;;;;;31.96;100.00;101095.34;104668;1260;74003;-53
2023/08/06 10:23:20;;;;;;;3.30;1.00;;;;;;;32.00;100.00;101091.29;104536;1254;67062;-53
2023/08/06 10:25:53;;;;;;;3.30;1.00;;;;;;;32.04;100.00;101082.13;104355;1258;72932;-53
2023/08/06 10:28:20;;;;;;;1.60;1.20;;;;;;;32.08;100.00;101076.80;104770;1260;60556;-53
2023/08/06 10:30:48;;;;;;;3.40;1.30;;;;;;;32.12;100.00;101067.81;104813;1260;62538;-53
2023/08/06 10:33:18;;;;;;;2.00;1.30;;;;;;;32.16;100.00;101056.55;104925;1261;73830;-54
2023/08/06 10:35:50;;;;;;;5.00;1.30;;;;;;;32.21;100.00;101042.77;105168;1262;67307;-54
2023/08/06 10:38:22;;;;;;;1.80;1.10;;;;;;;32.25;100.00;101041.91;104601;1260;73170;-54
2023/08/06 10:41:10;;;;;;;2.00;1.10;;;;;;;32.28;100.00;101026.66;105221;1258;60450;-53
2023/08/06 10:43:41;;;;;;;2.80;1.10;;;;;;;32.32;100.00;101026.91;104870;1254;62408;-53
2023/08/06 10:46:10;;;;;;;4.20;1.00;;;;;;;32.37;100.00;101010.83;104638;1254;72608;-55
2023/08/06 10:48:38;;;;;;;1.90;0.90;;;;;;;32.40;100.00;100997.02;104257;1260;66792;-54
2023/08/06 10:51:10;;;;;;;2.00;1.00;;;;;;;32.42;100.00;100978.90;104636;1254;71529;-54
2023/08/06 10:53:41;;;;;;;2.70;0.80;;;;;;;32.44;100.00;100965.30;104764;1260;61311;-53
2023/08/06 10:56:27;;;;;;;3.20;0.80;;;;;;;32.49;100.00;100959.19;104409;1258;61084;-53
2023/08/06 10:58:58;;;;;;;1.40;0.80;;;;;;;32.54;100.00;100958.81;104522;1258;73055;-54
2023/08/06 11:01:28;;;;;;;3.10;0.80;;;;;;;32.60;100.00;100940.13;105353;1260;67188;-52
2023/08/06 11:03:57;;;;;;;2.20;0.90;;;;;;;32.65;100.00;100932.84;105341;1260;72465;-53
2023/08/06 11:06:26;;;;;;;1.70;0.80;;;;;;;32.69;100.00;100914.41;104916;1254;60591;-54
2023/08/06 11:08:53;;;;;;;2.90;0.90;;;;;;;32.73;100.00;100919.41;104742;1262;60445;-54
2023/08/06 11:11:22;;;;;;;2.20;0.80;;;;;;;32.77;100.00;100903.32;104790;1260;73842;-53
2023/08/06 11:13:50;;;;;;;2.20;0.70;;;;;;;32.79;100.00;100892.02;105404;1260;66391;-53